sensor_id;sensor_type;location;lat;lon;timestamp;P1;durP1;ratioP1;P2;durP2;ratioP2
29688;SDS011;16600;47.444;8.334;2024-02-14T00:02:21;7.32;;;5.05;;
29688;SDS011;16600;47.444;8.334;2024-02-14T00:04:47;12.90;;;5.05;;
29688;SDS011;16600;47.444;8.334;2024-02-14T00:07:16;6.28;;;4.22;;
29688;SDS011;16600;47.444;8.334;2024-02-14T00:09:42;7.18;;;5.10;;
29688;SDS011;16600;47.444;8.334;2024-02-14T00:12:08;8.07;;;4.93;;
29688;SDS011;16600;47.444;8.334;2024-02-14T00:14:37;9.40;;;5.05;;
29688;SDS011;16600;47.444;8.334;2024-02-14T00:17:03;11.55;;;5.22;;
29688;SDS011;16600;47.444;8.334;2024-02-14T00:19:33;6.50;;;4.70;;
29688;SDS011;16600;47.444;8.334;2024-02-14T00:21:59;6.57;;;4.95;;
29688;SDS011;16600;47.444;8.334;2024-02-14T00:24:26;6.07;;;4.50;;
29688;SDS011;16600;47.444;8.334;2024-02-14T00:26:55;14.43;;;4.70;;
29688;SDS011;16600;47.444;8.334;2024-02-14T00:29:22;12.20;;;5.05;;
29688;SDS011;16600;47.444;8.334;2024-02-14T00:31:49;5.60;;;4.15;;
29688;SDS011;16600;47.444;8.334;2024-02-14T00:34:16;42.70;;;27.77;;
29688;SDS011;16600;47.444;8.334;2024-02-14T00:36:47;32.95;;;21.40;;
29688;SDS011;16600;47.444;8.334;2024-02-14T00:39:13;26.17;;;18.23;;
29688;SDS011;16600;47.444;8.334;2024-02-14T00:41:39;31.10;;;16.65;;
29688;SDS011;16600;47.444;8.334;2024-02-14T00:44:05;8.50;;;5.00;;
29688;SDS011;16600;47.444;8.334;2024-02-14T00:48:57;8.82;;;5.15;;
29688;SDS011;16600;47.444;8.334;2024-02-14T00:51:26;7.45;;;4.93;;
29688;SDS011;16600;47.444;8.334;2024-02-14T00:56:17;8.60;;;4.35;;
29688;SDS011;16600;47.444;8.334;2024-02-14T00:58:43;7.45;;;4.55;;
29688;SDS011;16600;47.444;8.334;2024-02-14T01:03:03;6.90;;;4.17;;
29688;SDS011;16600;47.444;8.334;2024-02-14T01:07:54;8.90;;;4.40;;
29688;SDS011;16600;47.444;8.334;2024-02-14T01:12:44;8.43;;;4.43;;
29688;SDS011;16600;47.444;8.334;2024-02-14T01:15:10;11.98;;;4.88;;
29688;SDS011;16600;47.444;8.334;2024-02-14T01:17:35;10.50;;;4.55;;
29688;SDS011;16600;47.444;8.334;2024-02-14T01:20:03;7.40;;;4.43;;
29688;SDS011;16600;47.444;8.334;2024-02-14T01:22:30;12.73;;;5.28;;
29688;SDS011;16600;47.444;8.334;2024-02-14T01:27:21;8.30;;;4.55;;
29688;SDS011;16600;47.444;8.334;2024-02-14T01:29:48;10.23;;;5.40;;
29688;SDS011;16600;47.444;8.334;2024-02-14T01:32:14;8.77;;;5.38;;
29688;SDS011;16600;47.444;8.334;2024-02-14T01:34:45;9.20;;;5.22;;
29688;SDS011;16600;47.444;8.334;2024-02-14T01:39:36;10.25;;;3.85;;
29688;SDS011;16600;47.444;8.334;2024-02-14T01:44:32;9.32;;;4.28;;
29688;SDS011;16600;47.444;8.334;2024-02-14T01:46:58;8.75;;;4.65;;
29688;SDS011;16600;47.444;8.334;2024-02-14T01:51:49;7.45;;;4.03;;
29688;SDS011;16600;47.444;8.334;2024-02-14T01:54:15;6.75;;;4.35;;
29688;SDS011;16600;47.444;8.334;2024-02-14T01:56:42;6.15;;;3.78;;
29688;SDS011;16600;47.444;8.334;2024-02-14T01:59:09;7.40;;;3.97;;
29688;SDS011;16600;47.444;8.334;2024-02-14T02:04:00;12.90;;;4.13;;
29688;SDS011;16600;47.444;8.334;2024-02-14T02:06:29;5.95;;;4.10;;
29688;SDS011;16600;47.444;8.334;2024-02-14T02:08:56;6.82;;;3.97;;
29688;SDS011;16600;47.444;8.334;2024-02-14T02:11:22;11.63;;;4.80;;
29688;SDS011;16600;47.444;8.334;2024-02-14T02:16:16;10.07;;;3.60;;
29688;SDS011;16600;47.444;8.334;2024-02-14T02:18:45;7.63;;;3.92;;
29688;SDS011;16600;47.444;8.334;2024-02-14T02:21:11;7.50;;;4.07;;
29688;SDS011;16600;47.444;8.334;2024-02-14T02:23:38;8.35;;;4.00;;
29688;SDS011;16600;47.444;8.334;2024-02-14T02:26:07;10.98;;;4.43;;
29688;SDS011;16600;47.444;8.334;2024-02-14T02:28:33;6.00;;;4.28;;
29688;SDS011;16600;47.444;8.334;2024-02-14T02:33:24;8.77;;;4.15;;
29688;SDS011;16600;47.444;8.334;2024-02-14T02:35:51;11.57;;;4.90;;
29688;SDS011;16600;47.444;8.334;2024-02-14T02:38:17;31.48;;;4.60;;
29688;SDS011;16600;47.444;8.334;2024-02-14T02:40:45;6.15;;;3.92;;
29688;SDS011;16600;47.444;8.334;2024-02-14T02:43:11;6.05;;;4.13;;
29688;SDS011;16600;47.444;8.334;2024-02-14T02:45:37;6.35;;;3.80;;
29688;SDS011;16600;47.444;8.334;2024-02-14T02:48:04;6.95;;;4.28;;
29688;SDS011;16600;47.444;8.334;2024-02-14T02:52:55;8.18;;;4.20;;
29688;SDS011;16600;47.444;8.334;2024-02-14T02:55:22;6.93;;;4.30;;
29688;SDS011;16600;47.444;8.334;2024-02-14T02:57:48;9.60;;;4.35;;
29688;SDS011;16600;47.444;8.334;2024-02-14T03:03:02;5.70;;;4.53;;
29688;SDS011;16600;47.444;8.334;2024-02-14T03:05:30;8.35;;;3.97;;
29688;SDS011;16600;47.444;8.334;2024-02-14T03:07:59;7.80;;;3.70;;
29688;SDS011;16600;47.444;8.334;2024-02-14T03:10:25;9.40;;;4.53;;
29688;SDS011;16600;47.444;8.334;2024-02-14T03:12:51;6.25;;;3.92;;
29688;SDS011;16600;47.444;8.334;2024-02-14T03:15:18;6.30;;;3.47;;
29688;SDS011;16600;47.444;8.334;2024-02-14T03:17:45;8.18;;;3.90;;
29688;SDS011;16600;47.444;8.334;2024-02-14T03:20:14;4.95;;;3.50;;
29688;SDS011;16600;47.444;8.334;2024-02-14T03:25:17;4.55;;;3.17;;
29688;SDS011;16600;47.444;8.334;2024-02-14T03:27:43;7.28;;;4.00;;
29688;SDS011;16600;47.444;8.334;2024-02-14T03:30:20;6.47;;;3.97;;
29688;SDS011;16600;47.444;8.334;2024-02-14T03:32:46;9.25;;;4.00;;
29688;SDS011;16600;47.444;8.334;2024-02-14T03:35:15;6.18;;;3.97;;
29688;SDS011;16600;47.444;8.334;2024-02-14T03:37:42;12.05;;;3.72;;
29688;SDS011;16600;47.444;8.334;2024-02-14T03:40:09;7.65;;;3.50;;
29688;SDS011;16600;47.444;8.334;2024-02-14T03:42:38;11.77;;;3.80;;
29688;SDS011;16600;47.444;8.334;2024-02-14T03:45:06;6.38;;;3.90;;
29688;SDS011;16600;47.444;8.334;2024-02-14T03:47:33;7.35;;;4.07;;
29688;SDS011;16600;47.444;8.334;2024-02-14T03:50:07;6.00;;;4.00;;
29688;SDS011;16600;47.444;8.334;2024-02-14T03:52:34;5.60;;;3.90;;
29688;SDS011;16600;47.444;8.334;2024-02-14T03:55:00;5.40;;;4.03;;
29688;SDS011;16600;47.444;8.334;2024-02-14T03:57:26;5.63;;;3.88;;
29688;SDS011;16600;47.444;8.334;2024-02-14T03:59:55;6.72;;;4.38;;
29688;SDS011;16600;47.444;8.334;2024-02-14T04:02:24;7.82;;;4.07;;
29688;SDS011;16600;47.444;8.334;2024-02-14T04:04:53;8.55;;;4.43;;
29688;SDS011;16600;47.444;8.334;2024-02-14T04:07:21;9.10;;;4.13;;
29688;SDS011;16600;47.444;8.334;2024-02-14T04:09:47;5.38;;;3.78;;
29688;SDS011;16600;47.444;8.334;2024-02-14T04:12:14;6.28;;;3.85;;
29688;SDS011;16600;47.444;8.334;2024-02-14T04:14:43;7.25;;;4.03;;
29688;SDS011;16600;47.444;8.334;2024-02-14T04:17:10;6.65;;;4.00;;
29688;SDS011;16600;47.444;8.334;2024-02-14T04:19:37;6.82;;;4.03;;
29688;SDS011;16600;47.444;8.334;2024-02-14T04:22:03;7.55;;;3.83;;
29688;SDS011;16600;47.444;8.334;2024-02-14T04:24:29;4.05;;;3.35;;
29688;SDS011;16600;47.444;8.334;2024-02-14T05:03:05;5.27;;;3.93;;
29688;SDS011;16600;47.444;8.334;2024-02-14T05:05:31;6.40;;;3.90;;
29688;SDS011;16600;47.444;8.334;2024-02-14T05:07:59;6.82;;;4.25;;
29688;SDS011;16600;47.444;8.334;2024-02-14T05:10:27;9.98;;;4.05;;
29688;SDS011;16600;47.444;8.334;2024-02-14T05:12:54;5.80;;;3.63;;
29688;SDS011;16600;47.444;8.334;2024-02-14T05:15:20;8.85;;;3.72;;
29688;SDS011;16600;47.444;8.334;2024-02-14T05:17:46;9.98;;;5.10;;
29688;SDS011;16600;47.444;8.334;2024-02-14T05:20:16;8.45;;;2.70;;
29688;SDS011;16600;47.444;8.334;2024-02-14T05:22:45;5.82;;;3.20;;
29688;SDS011;16600;47.444;8.334;2024-02-14T05:27:37;6.95;;;3.88;;
29688;SDS011;16600;47.444;8.334;2024-02-14T05:32:33;5.75;;;2.80;;
29688;SDS011;16600;47.444;8.334;2024-02-14T05:34:59;8.02;;;3.53;;
29688;SDS011;16600;47.444;8.334;2024-02-14T05:37:26;6.85;;;4.13;;
29688;SDS011;16600;47.444;8.334;2024-02-14T05:39:57;4.13;;;3.13;;
29688;SDS011;16600;47.444;8.334;2024-02-14T05:42:23;12.85;;;3.97;;
29688;SDS011;16600;47.444;8.334;2024-02-14T05:44:49;5.72;;;3.80;;
29688;SDS011;16600;47.444;8.334;2024-02-14T05:47:18;11.95;;;4.07;;
29688;SDS011;16600;47.444;8.334;2024-02-14T05:52:10;8.80;;;4.05;;
29688;SDS011;16600;47.444;8.334;2024-02-14T05:57:01;5.68;;;3.70;;
29688;SDS011;16600;47.444;8.334;2024-02-14T05:59:30;6.05;;;3.85;;
29688;SDS011;16600;47.444;8.334;2024-02-14T06:01:56;8.48;;;4.35;;
29688;SDS011;16600;47.444;8.334;2024-02-14T06:04:25;5.28;;;3.75;;
29688;SDS011;16600;47.444;8.334;2024-02-14T06:06:51;11.82;;;4.22;;
29688;SDS011;16600;47.444;8.334;2024-02-14T06:11:43;8.88;;;3.88;;
29688;SDS011;16600;47.444;8.334;2024-02-14T06:14:09;4.80;;;3.00;;
29688;SDS011;16600;47.444;8.334;2024-02-14T06:19:00;12.80;;;3.58;;
29688;SDS011;16600;47.444;8.334;2024-02-14T06:23:52;6.63;;;4.30;;
29688;SDS011;16600;47.444;8.334;2024-02-14T06:28:44;7.60;;;5.82;;
29688;SDS011;16600;47.444;8.334;2024-02-14T06:31:10;6.22;;;4.30;;
29688;SDS011;16600;47.444;8.334;2024-02-14T06:33:39;7.75;;;4.25;;
29688;SDS011;16600;47.444;8.334;2024-02-14T06:36:09;7.65;;;3.72;;
29688;SDS011;16600;47.444;8.334;2024-02-14T06:38:36;7.32;;;3.60;;
29688;SDS011;16600;47.444;8.334;2024-02-14T06:43:27;7.57;;;3.90;;
29688;SDS011;16600;47.444;8.334;2024-02-14T06:45:55;4.43;;;3.40;;
29688;SDS011;16600;47.444;8.334;2024-02-14T06:48:22;5.78;;;3.60;;
29688;SDS011;16600;47.444;8.334;2024-02-14T06:50:52;6.10;;;3.03;;
29688;SDS011;16600;47.444;8.334;2024-02-14T06:53:18;8.45;;;3.40;;
29688;SDS011;16600;47.444;8.334;2024-02-14T06:55:46;4.70;;;3.05;;
29688;SDS011;16600;47.444;8.334;2024-02-14T06:58:13;5.00;;;3.35;;
29688;SDS011;16600;47.444;8.334;2024-02-14T07:03:13;6.27;;;3.53;;
29688;SDS011;16600;47.444;8.334;2024-02-14T07:08:04;8.07;;;3.65;;
29688;SDS011;16600;47.444;8.334;2024-02-14T07:10:30;7.30;;;3.42;;
29688;SDS011;16600;47.444;8.334;2024-02-14T07:12:57;5.63;;;3.28;;
29688;SDS011;16600;47.444;8.334;2024-02-14T07:17:54;6.10;;;3.17;;
29688;SDS011;16600;47.444;8.334;2024-02-14T07:20:24;5.25;;;3.00;;
29688;SDS011;16600;47.444;8.334;2024-02-14T07:22:55;11.73;;;3.20;;
29688;SDS011;16600;47.444;8.334;2024-02-14T07:25:24;5.20;;;3.28;;
29688;SDS011;16600;47.444;8.334;2024-02-14T07:27:57;6.07;;;2.95;;
29688;SDS011;16600;47.444;8.334;2024-02-14T07:30:35;5.28;;;2.92;;
29688;SDS011;16600;47.444;8.334;2024-02-14T07:33:05;4.28;;;2.90;;
29688;SDS011;16600;47.444;8.334;2024-02-14T07:35:36;9.57;;;3.55;;
29688;SDS011;16600;47.444;8.334;2024-02-14T07:38:03;4.97;;;3.15;;
29688;SDS011;16600;47.444;8.334;2024-02-14T07:40:38;6.60;;;2.90;;
29688;SDS011;16600;47.444;8.334;2024-02-14T07:43:10;3.47;;;2.58;;
29688;SDS011;16600;47.444;8.334;2024-02-14T07:45:40;3.22;;;2.35;;
29688;SDS011;16600;47.444;8.334;2024-02-14T07:48:06;6.95;;;2.40;;
29688;SDS011;16600;47.444;8.334;2024-02-14T07:50:40;5.57;;;2.95;;
29688;SDS011;16600;47.444;8.334;2024-02-14T07:53:07;9.23;;;2.85;;
29688;SDS011;16600;47.444;8.334;2024-02-14T07:55:43;4.38;;;2.50;;
29688;SDS011;16600;47.444;8.334;2024-02-14T07:58:10;4.65;;;2.35;;
29688;SDS011;16600;47.444;8.334;2024-02-14T08:00:43;4.05;;;2.45;;
29688;SDS011;16600;47.444;8.334;2024-02-14T08:03:09;8.75;;;3.85;;
29688;SDS011;16600;47.444;8.334;2024-02-14T08:05:37;5.10;;;2.92;;
29688;SDS011;16600;47.444;8.334;2024-02-14T08:08:07;4.05;;;2.55;;
29688;SDS011;16600;47.444;8.334;2024-02-14T08:10:33;2.97;;;2.22;;
29688;SDS011;16600;47.444;8.334;2024-02-14T08:12:59;4.00;;;2.55;;
29688;SDS011;16600;47.444;8.334;2024-02-14T08:15:28;7.28;;;3.22;;
29688;SDS011;16600;47.444;8.334;2024-02-14T08:17:54;7.25;;;3.03;;
29688;SDS011;16600;47.444;8.334;2024-02-14T08:20:22;4.68;;;2.55;;
29688;SDS011;16600;47.444;8.334;2024-02-14T08:22:53;5.82;;;2.63;;
29688;SDS011;16600;47.444;8.334;2024-02-14T08:25:19;8.30;;;3.28;;
29688;SDS011;16600;47.444;8.334;2024-02-14T08:27:48;3.72;;;2.47;;
29688;SDS011;16600;47.444;8.334;2024-02-14T08:30:14;5.70;;;2.88;;
29688;SDS011;16600;47.444;8.334;2024-02-14T08:32:41;5.88;;;2.78;;
29688;SDS011;16600;47.444;8.334;2024-02-14T08:35:07;12.30;;;3.22;;
29688;SDS011;16600;47.444;8.334;2024-02-14T08:37:35;5.82;;;2.75;;
29688;SDS011;16600;47.444;8.334;2024-02-14T08:40:06;7.50;;;2.92;;
29688;SDS011;16600;47.444;8.334;2024-02-14T08:42:36;5.07;;;2.70;;
29688;SDS011;16600;47.444;8.334;2024-02-14T08:45:03;5.35;;;2.22;;
29688;SDS011;16600;47.444;8.334;2024-02-14T08:47:32;6.60;;;3.05;;
29688;SDS011;16600;47.444;8.334;2024-02-14T08:49:58;8.27;;;3.83;;
29688;SDS011;16600;47.444;8.334;2024-02-14T08:52:28;9.52;;;3.70;;
29688;SDS011;16600;47.444;8.334;2024-02-14T08:54:57;8.27;;;3.70;;
29688;SDS011;16600;47.444;8.334;2024-02-14T08:59:51;9.73;;;3.42;;
29688;SDS011;16600;47.444;8.334;2024-02-14T09:03:04;6.33;;;3.20;;
29688;SDS011;16600;47.444;8.334;2024-02-14T09:07:55;8.75;;;3.47;;
29688;SDS011;16600;47.444;8.334;2024-02-14T09:12:47;7.22;;;3.63;;
29688;SDS011;16600;47.444;8.334;2024-02-14T09:15:13;6.82;;;3.33;;
29688;SDS011;16600;47.444;8.334;2024-02-14T09:22:34;4.65;;;3.40;;
29688;SDS011;16600;47.444;8.334;2024-02-14T09:25:00;5.25;;;2.90;;
29688;SDS011;16600;47.444;8.334;2024-02-14T09:27:25;5.90;;;3.05;;
29688;SDS011;16600;47.444;8.334;2024-02-14T09:29:51;6.60;;;3.63;;
29688;SDS011;16600;47.444;8.334;2024-02-14T09:34:41;10.23;;;3.20;;
29688;SDS011;16600;47.444;8.334;2024-02-14T09:39:32;5.50;;;2.60;;
29688;SDS011;16600;47.444;8.334;2024-02-14T09:42:01;2.45;;;2.25;;
29688;SDS011;16600;47.444;8.334;2024-02-14T09:44:32;3.28;;;2.40;;
29688;SDS011;16600;47.444;8.334;2024-02-14T09:47:00;4.35;;;2.60;;
29688;SDS011;16600;47.444;8.334;2024-02-14T09:49:26;4.55;;;2.20;;
29688;SDS011;16600;47.444;8.334;2024-02-14T09:51:53;4.40;;;2.45;;
29688;SDS011;16600;47.444;8.334;2024-02-14T09:54:23;3.35;;;2.28;;
29688;SDS011;16600;47.444;8.334;2024-02-14T09:56:52;5.53;;;2.33;;
29688;SDS011;16600;47.444;8.334;2024-02-14T09:59:19;3.92;;;2.70;;
29688;SDS011;16600;47.444;8.334;2024-02-14T10:01:46;3.38;;;2.03;;
29688;SDS011;16600;47.444;8.334;2024-02-14T10:04:14;4.30;;;2.40;;
29688;SDS011;16600;47.444;8.334;2024-02-14T10:06:48;3.22;;;2.33;;
29688;SDS011;16600;47.444;8.334;2024-02-14T10:09:23;3.38;;;2.42;;
29688;SDS011;16600;47.444;8.334;2024-02-14T10:11:51;3.15;;;2.67;;
29688;SDS011;16600;47.444;8.334;2024-02-14T10:14:16;5.10;;;2.70;;
29688;SDS011;16600;47.444;8.334;2024-02-14T10:16:49;4.60;;;2.40;;
29688;SDS011;16600;47.444;8.334;2024-02-14T10:19:16;4.13;;;2.67;;
29688;SDS011;16600;47.444;8.334;2024-02-14T10:21:58;4.72;;;2.67;;
29688;SDS011;16600;47.444;8.334;2024-02-14T10:24:25;6.65;;;2.58;;
29688;SDS011;16600;47.444;8.334;2024-02-14T10:26:51;4.45;;;2.70;;
29688;SDS011;16600;47.444;8.334;2024-02-14T10:29:19;6.32;;;2.55;;
29688;SDS011;16600;47.444;8.334;2024-02-14T10:31:46;5.07;;;2.65;;
29688;SDS011;16600;47.444;8.334;2024-02-14T10:34:15;5.10;;;2.60;;
29688;SDS011;16600;47.444;8.334;2024-02-14T10:36:44;5.25;;;2.85;;
29688;SDS011;16600;47.444;8.334;2024-02-14T10:39:10;5.82;;;2.90;;
29688;SDS011;16600;47.444;8.334;2024-02-14T10:41:39;4.63;;;2.83;;
29688;SDS011;16600;47.444;8.334;2024-02-14T10:44:05;3.03;;;2.72;;
29688;SDS011;16600;47.444;8.334;2024-02-14T10:46:32;6.22;;;3.00;;
29688;SDS011;16600;47.444;8.334;2024-02-14T10:49:02;7.93;;;2.78;;
29688;SDS011;16600;47.444;8.334;2024-02-14T10:51:34;7.03;;;3.22;;
29688;SDS011;16600;47.444;8.334;2024-02-14T10:54:03;6.85;;;3.10;;
29688;SDS011;16600;47.444;8.334;2024-02-14T10:56:31;6.43;;;2.72;;
29688;SDS011;16600;47.444;8.334;2024-02-14T10:59:03;4.40;;;2.80;;
29688;SDS011;16600;47.444;8.334;2024-02-14T11:03:01;3.40;;;2.43;;
29688;SDS011;16600;47.444;8.334;2024-02-14T11:05:28;3.80;;;2.65;;
29688;SDS011;16600;47.444;8.334;2024-02-14T11:07:54;2.83;;;2.30;;
29688;SDS011;16600;47.444;8.334;2024-02-14T11:10:25;3.97;;;3.00;;
29688;SDS011;16600;47.444;8.334;2024-02-14T11:12:53;8.40;;;2.65;;
29688;SDS011;16600;47.444;8.334;2024-02-14T11:15:20;5.45;;;2.83;;
29688;SDS011;16600;47.444;8.334;2024-02-14T11:17:47;4.93;;;2.45;;
29688;SDS011;16600;47.444;8.334;2024-02-14T11:20:36;3.95;;;2.50;;
29688;SDS011;16600;47.444;8.334;2024-02-14T11:23:03;10.02;;;2.70;;
29688;SDS011;16600;47.444;8.334;2024-02-14T11:25:34;3.50;;;2.53;;
29688;SDS011;16600;47.444;8.334;2024-02-14T11:28:18;3.67;;;2.75;;
29688;SDS011;16600;47.444;8.334;2024-02-14T11:31:02;4.53;;;2.85;;
29688;SDS011;16600;47.444;8.334;2024-02-14T11:33:30;4.57;;;2.65;;
29688;SDS011;16600;47.444;8.334;2024-02-14T11:35:56;5.35;;;2.65;;
29688;SDS011;16600;47.444;8.334;2024-02-14T11:38:24;7.07;;;2.65;;
29688;SDS011;16600;47.444;8.334;2024-02-14T11:40:57;9.63;;;2.67;;
29688;SDS011;16600;47.444;8.334;2024-02-14T11:43:30;4.15;;;2.55;;
29688;SDS011;16600;47.444;8.334;2024-02-14T11:45:57;5.13;;;2.45;;
29688;SDS011;16600;47.444;8.334;2024-02-14T11:48:26;3.17;;;2.58;;
29688;SDS011;16600;47.444;8.334;2024-02-14T11:50:53;5.07;;;2.42;;
29688;SDS011;16600;47.444;8.334;2024-02-14T11:53:22;3.33;;;2.63;;
29688;SDS011;16600;47.444;8.334;2024-02-14T11:55:52;9.82;;;2.63;;
29688;SDS011;16600;47.444;8.334;2024-02-14T11:58:21;2.70;;;2.47;;
29688;SDS011;16600;47.444;8.334;2024-02-14T12:00:51;4.15;;;2.83;;
29688;SDS011;16600;47.444;8.334;2024-02-14T12:03:23;5.90;;;3.05;;
29688;SDS011;16600;47.444;8.334;2024-02-14T12:05:55;4.75;;;2.60;;
29688;SDS011;16600;47.444;8.334;2024-02-14T12:08:24;6.43;;;2.53;;
29688;SDS011;16600;47.444;8.334;2024-02-14T12:10:50;6.68;;;2.50;;
29688;SDS011;16600;47.444;8.334;2024-02-14T12:13:20;2.60;;;1.90;;
29688;SDS011;16600;47.444;8.334;2024-02-14T12:15:50;4.95;;;2.08;;
29688;SDS011;16600;47.444;8.334;2024-02-14T12:18:20;3.60;;;2.38;;
29688;SDS011;16600;47.444;8.334;2024-02-14T12:20:46;4.82;;;2.08;;
29688;SDS011;16600;47.444;8.334;2024-02-14T12:23:16;3.95;;;2.13;;
29688;SDS011;16600;47.444;8.334;2024-02-14T12:25:47;3.17;;;2.22;;
29688;SDS011;16600;47.444;8.334;2024-02-14T12:28:17;4.53;;;2.70;;
29688;SDS011;16600;47.444;8.334;2024-02-14T12:30:46;3.92;;;2.17;;
29688;SDS011;16600;47.444;8.334;2024-02-14T12:33:17;4.82;;;2.17;;
29688;SDS011;16600;47.444;8.334;2024-02-14T12:35:49;10.77;;;2.17;;
29688;SDS011;16600;47.444;8.334;2024-02-14T12:38:16;2.92;;;2.08;;
29688;SDS011;16600;47.444;8.334;2024-02-14T12:40:45;9.75;;;2.45;;
29688;SDS011;16600;47.444;8.334;2024-02-14T12:43:12;7.43;;;2.22;;
29688;SDS011;16600;47.444;8.334;2024-02-14T12:45:39;3.20;;;2.03;;
29688;SDS011;16600;47.444;8.334;2024-02-14T12:48:05;2.10;;;1.90;;
29688;SDS011;16600;47.444;8.334;2024-02-14T12:50:33;3.38;;;2.47;;
29688;SDS011;16600;47.444;8.334;2024-02-14T12:53:01;7.18;;;2.38;;
29688;SDS011;16600;47.444;8.334;2024-02-14T12:55:30;4.43;;;2.40;;
29688;SDS011;16600;47.444;8.334;2024-02-14T12:58:02;4.47;;;2.28;;
29688;SDS011;16600;47.444;8.334;2024-02-14T13:03:02;4.80;;;1.80;;
29688;SDS011;16600;47.444;8.334;2024-02-14T13:05:30;2.95;;;2.05;;
29688;SDS011;16600;47.444;8.334;2024-02-14T13:07:59;4.82;;;2.13;;
29688;SDS011;16600;47.444;8.334;2024-02-14T13:10:32;2.75;;;2.00;;
29688;SDS011;16600;47.444;8.334;2024-02-14T13:13:01;3.40;;;2.10;;
29688;SDS011;16600;47.444;8.334;2024-02-14T13:15:27;4.03;;;2.10;;
29688;SDS011;16600;47.444;8.334;2024-02-14T13:17:54;2.75;;;1.98;;
29688;SDS011;16600;47.444;8.334;2024-02-14T13:20:29;2.33;;;1.85;;
29688;SDS011;16600;47.444;8.334;2024-02-14T13:22:55;3.00;;;1.90;;
29688;SDS011;16600;47.444;8.334;2024-02-14T13:25:21;5.82;;;2.10;;
29688;SDS011;16600;47.444;8.334;2024-02-14T13:27:47;2.47;;;1.50;;
29688;SDS011;16600;47.444;8.334;2024-02-14T13:30:16;4.65;;;2.00;;
29688;SDS011;16600;47.444;8.334;2024-02-14T13:32:48;5.03;;;2.10;;
29688;SDS011;16600;47.444;8.334;2024-02-14T13:35:13;6.03;;;2.05;;
29688;SDS011;16600;47.444;8.334;2024-02-14T13:37:45;2.10;;;1.88;;
29688;SDS011;16600;47.444;8.334;2024-02-14T13:40:14;2.25;;;1.80;;
29688;SDS011;16600;47.444;8.334;2024-02-14T13:42:43;2.42;;;2.03;;
29688;SDS011;16600;47.444;8.334;2024-02-14T13:45:21;3.33;;;1.80;;
29688;SDS011;16600;47.444;8.334;2024-02-14T13:47:47;3.60;;;2.00;;
29688;SDS011;16600;47.444;8.334;2024-02-14T13:50:17;3.22;;;2.10;;
29688;SDS011;16600;47.444;8.334;2024-02-14T13:52:46;2.50;;;1.88;;
29688;SDS011;16600;47.444;8.334;2024-02-14T13:55:18;5.53;;;1.95;;
29688;SDS011;16600;47.444;8.334;2024-02-14T13:57:44;2.85;;;1.92;;
29688;SDS011;16600;47.444;8.334;2024-02-14T14:00:10;3.30;;;1.80;;
29688;SDS011;16600;47.444;8.334;2024-02-14T14:02:39;4.13;;;2.20;;
29688;SDS011;16600;47.444;8.334;2024-02-14T14:05:09;2.20;;;1.88;;
29688;SDS011;16600;47.444;8.334;2024-02-14T14:07:38;6.32;;;2.10;;
29688;SDS011;16600;47.444;8.334;2024-02-14T14:10:05;4.93;;;2.40;;
29688;SDS011;16600;47.444;8.334;2024-02-14T14:12:34;4.45;;;2.00;;
29688;SDS011;16600;47.444;8.334;2024-02-14T14:15:00;16.23;;;2.30;;
29688;SDS011;16600;47.444;8.334;2024-02-14T14:17:27;4.57;;;2.05;;
29688;SDS011;16600;47.444;8.334;2024-02-14T14:19:53;3.38;;;2.00;;
29688;SDS011;16600;47.444;8.334;2024-02-14T14:22:18;2.70;;;1.70;;
29688;SDS011;16600;47.444;8.334;2024-02-14T14:24:47;6.15;;;2.05;;
29688;SDS011;16600;47.444;8.334;2024-02-14T14:27:13;5.97;;;1.92;;
29688;SDS011;16600;47.444;8.334;2024-02-14T14:29:40;4.00;;;1.73;;
29688;SDS011;16600;47.444;8.334;2024-02-14T14:32:09;2.97;;;2.10;;
29688;SDS011;16600;47.444;8.334;2024-02-14T14:34:40;4.28;;;2.38;;
29688;SDS011;16600;47.444;8.334;2024-02-14T14:37:06;3.45;;;1.92;;
29688;SDS011;16600;47.444;8.334;2024-02-14T14:39:33;5.97;;;2.25;;
29688;SDS011;16600;47.444;8.334;2024-02-14T14:41:58;3.03;;;1.75;;
29688;SDS011;16600;47.444;8.334;2024-02-14T14:44:24;9.55;;;2.33;;
29688;SDS011;16600;47.444;8.334;2024-02-14T14:46:50;9.43;;;2.90;;
29688;SDS011;16600;47.444;8.334;2024-02-14T14:49:16;4.05;;;1.88;;
29688;SDS011;16600;47.444;8.334;2024-02-14T14:51:43;6.18;;;2.38;;
29688;SDS011;16600;47.444;8.334;2024-02-14T14:54:09;6.65;;;2.03;;
29688;SDS011;16600;47.444;8.334;2024-02-14T14:56:36;7.30;;;2.33;;
29688;SDS011;16600;47.444;8.334;2024-02-14T14:59:02;5.00;;;2.10;;
29688;SDS011;16600;47.444;8.334;2024-02-14T15:03:01;6.13;;;2.40;;
29688;SDS011;16600;47.444;8.334;2024-02-14T15:05:27;2.92;;;2.00;;
29688;SDS011;16600;47.444;8.334;2024-02-14T15:07:54;18.00;;;2.72;;
29688;SDS011;16600;47.444;8.334;2024-02-14T15:10:28;5.63;;;2.15;;
29688;SDS011;16600;47.444;8.334;2024-02-14T15:12:54;3.72;;;2.50;;
29688;SDS011;16600;47.444;8.334;2024-02-14T15:15:21;4.00;;;2.38;;
29688;SDS011;16600;47.444;8.334;2024-02-14T15:17:56;7.03;;;2.20;;
29688;SDS011;16600;47.444;8.334;2024-02-14T15:20:22;7.43;;;2.72;;
29688;SDS011;16600;47.444;8.334;2024-02-14T15:22:52;5.10;;;2.38;;
29688;SDS011;16600;47.444;8.334;2024-02-14T15:25:21;11.68;;;2.10;;
29688;SDS011;16600;47.444;8.334;2024-02-14T15:27:50;5.25;;;2.28;;
29688;SDS011;16600;47.444;8.334;2024-02-14T15:30:26;2.70;;;2.10;;
29688;SDS011;16600;47.444;8.334;2024-02-14T15:33:11;3.33;;;2.10;;
29688;SDS011;16600;47.444;8.334;2024-02-14T15:35:50;6.90;;;2.75;;
29688;SDS011;16600;47.444;8.334;2024-02-14T15:38:19;5.70;;;3.38;;
29688;SDS011;16600;47.444;8.334;2024-02-14T15:40:46;4.28;;;2.92;;
29688;SDS011;16600;47.444;8.334;2024-02-14T15:43:20;7.20;;;2.70;;
29688;SDS011;16600;47.444;8.334;2024-02-14T15:45:46;2.65;;;2.20;;
29688;SDS011;16600;47.444;8.334;2024-02-14T15:48:13;3.30;;;2.20;;
29688;SDS011;16600;47.444;8.334;2024-02-14T15:50:40;6.88;;;2.70;;
29688;SDS011;16600;47.444;8.334;2024-02-14T15:53:06;4.05;;;2.40;;
29688;SDS011;16600;47.444;8.334;2024-02-14T15:55:32;12.43;;;4.20;;
29688;SDS011;16600;47.444;8.334;2024-02-14T15:57:58;5.30;;;2.50;;
29688;SDS011;16600;47.444;8.334;2024-02-14T16:00:24;5.32;;;2.30;;
29688;SDS011;16600;47.444;8.334;2024-02-14T16:02:55;3.35;;;2.40;;
29688;SDS011;16600;47.444;8.334;2024-02-14T16:05:20;3.28;;;2.25;;
29688;SDS011;16600;47.444;8.334;2024-02-14T16:07:49;25.20;;;10.75;;
29688;SDS011;16600;47.444;8.334;2024-02-14T16:10:18;10.32;;;4.50;;
29688;SDS011;16600;47.444;8.334;2024-02-14T16:12:44;6.72;;;3.00;;
29688;SDS011;16600;47.444;8.334;2024-02-14T16:15:10;3.65;;;2.67;;
29688;SDS011;16600;47.444;8.334;2024-02-14T16:17:40;5.75;;;3.10;;
29688;SDS011;16600;47.444;8.334;2024-02-14T16:20:09;9.18;;;4.70;;
29688;SDS011;16600;47.444;8.334;2024-02-14T16:22:38;8.75;;;3.45;;
29688;SDS011;16600;47.444;8.334;2024-02-14T16:25:10;7.00;;;3.17;;
29688;SDS011;16600;47.444;8.334;2024-02-14T16:27:36;4.90;;;3.60;;
29688;SDS011;16600;47.444;8.334;2024-02-14T16:30:06;7.72;;;4.10;;
29688;SDS011;16600;47.444;8.334;2024-02-14T16:32:38;9.75;;;5.45;;
29688;SDS011;16600;47.444;8.334;2024-02-14T16:35:10;6.80;;;4.88;;
29688;SDS011;16600;47.444;8.334;2024-02-14T16:37:39;7.35;;;4.38;;
29688;SDS011;16600;47.444;8.334;2024-02-14T16:40:08;7.55;;;3.97;;
29688;SDS011;16600;47.444;8.334;2024-02-14T16:42:37;6.28;;;3.08;;
29688;SDS011;16600;47.444;8.334;2024-02-14T16:45:07;5.32;;;3.10;;
29688;SDS011;16600;47.444;8.334;2024-02-14T16:47:35;4.47;;;3.10;;
29688;SDS011;16600;47.444;8.334;2024-02-14T16:50:08;4.07;;;2.90;;
29688;SDS011;16600;47.444;8.334;2024-02-14T16:52:35;8.88;;;3.15;;
29688;SDS011;16600;47.444;8.334;2024-02-14T16:55:04;5.00;;;3.42;;
29688;SDS011;16600;47.444;8.334;2024-02-14T16:59:55;12.10;;;6.63;;